createdAt,value
2022-10-06T00:00:26.207Z,0.70
2022-10-06T00:02:52.602Z,0.60
2022-10-06T00:05:19.053Z,0.70
2022-10-06T00:07:45.475Z,0.57
2022-10-06T00:10:11.870Z,0.70
2022-10-06T00:12:43.070Z,0.65
2022-10-06T00:15:11.262Z,0.65
2022-10-06T00:17:38.211Z,0.68
2022-10-06T00:20:05.432Z,0.70
2022-10-06T00:22:35.963Z,0.52
2022-10-06T00:25:02.741Z,0.57
2022-10-06T00:27:37.373Z,0.60
2022-10-06T00:30:04.718Z,0.52
2022-10-06T00:32:31.166Z,0.50
2022-10-06T00:34:59.032Z,0.60
2022-10-06T00:37:26.531Z,0.50
2022-10-06T00:39:52.939Z,0.60
2022-10-06T00:42:24.835Z,0.50
2022-10-06T00:44:51.462Z,0.50
2022-10-06T00:47:19.636Z,0.60
2022-10-06T00:49:46.542Z,0.70
2022-10-06T00:52:19.826Z,0.68
2022-10-06T00:54:46.287Z,0.77
2022-10-06T00:57:12.793Z,0.70
2022-10-06T00:59:40.083Z,0.63
2022-10-06T01:02:13.849Z,0.70
2022-10-06T01:04:42.463Z,0.63
2022-10-06T01:07:09.759Z,0.55
2022-10-06T01:09:36.687Z,0.73
2022-10-06T01:12:05.432Z,0.60
2022-10-06T01:14:33.048Z,0.65
2022-10-06T01:17:14.174Z,0.90
2022-10-06T01:19:53.818Z,0.75
2022-10-06T01:22:29.248Z,0.70
2022-10-06T01:24:56.281Z,0.90
2022-10-06T01:27:24.259Z,0.80
2022-10-06T01:29:54.549Z,0.90
2022-10-06T01:32:22.401Z,0.90
2022-10-06T01:34:49.069Z,0.90
2022-10-06T01:37:15.547Z,1.00
2022-10-06T01:39:42.331Z,0.70
2022-10-06T01:42:09.461Z,0.85
2022-10-06T01:44:35.946Z,1.00
2022-10-06T01:47:05.208Z,1.23
2022-10-06T01:49:31.861Z,1.40
2022-10-06T01:51:58.434Z,1.00
2022-10-06T01:54:24.848Z,1.30
2022-10-06T01:56:51.257Z,1.50
2022-10-06T01:59:17.707Z,1.10
2022-10-06T02:01:44.177Z,1.30
2022-10-06T02:04:10.763Z,1.38
2022-10-06T02:06:37.295Z,1.10
2022-10-06T02:09:03.840Z,1.40
2022-10-06T02:11:30.420Z,1.30
2022-10-06T02:13:56.910Z,1.77
2022-10-06T02:16:23.649Z,1.75
2022-10-06T02:18:50.150Z,1.40
2022-10-06T02:21:21.756Z,1.40
2022-10-06T02:23:48.690Z,1.30
2022-10-06T02:26:19.480Z,1.35
2022-10-06T02:28:52.335Z,1.70
2022-10-06T02:31:19.384Z,1.40
2022-10-06T02:33:45.891Z,1.48
2022-10-06T02:36:13.946Z,1.60
2022-10-06T02:38:41.561Z,2.03
2022-10-06T02:41:08.702Z,1.80
2022-10-06T02:43:35.570Z,1.65
2022-10-06T02:46:06.890Z,1.95
2022-10-06T02:48:33.335Z,1.73
2022-10-06T02:51:02.176Z,2.15
2022-10-06T02:53:28.800Z,2.20
2022-10-06T02:56:22.754Z,1.85
2022-10-06T02:58:50.632Z,2.33
2022-10-06T03:01:19.775Z,2.30
2022-10-06T03:03:46.882Z,2.30
2022-10-06T03:06:22.230Z,2.63
2022-10-06T03:08:49.682Z,2.70
2022-10-06T03:11:19.227Z,2.33
2022-10-06T03:13:49.858Z,2.33
2022-10-06T03:16:24.692Z,2.22
2022-10-06T03:18:52.546Z,2.60
2022-10-06T03:21:24.431Z,2.20
2022-10-06T03:23:52.348Z,2.35
2022-10-06T03:26:20.913Z,2.50
2022-10-06T03:28:47.460Z,2.38
2022-10-06T03:31:14.957Z,2.30
2022-10-06T03:33:41.678Z,2.33
2022-10-06T03:36:14.741Z,2.30
2022-10-06T03:38:41.304Z,2.45
2022-10-06T03:41:19.298Z,2.30
2022-10-06T03:43:47.125Z,2.15
2022-10-06T03:46:15.684Z,2.42
2022-10-06T03:48:42.384Z,1.90
2022-10-06T03:51:12.397Z,1.73
2022-10-06T03:53:39.055Z,1.98
2022-10-06T03:56:17.034Z,2.13
2022-10-06T03:58:45.543Z,2.60
2022-10-06T04:01:21.102Z,2.42
2022-10-06T04:03:51.816Z,2.20
2022-10-06T04:06:19.236Z,2.20
2022-10-06T04:08:47.271Z,2.40
2022-10-06T04:11:16.020Z,2.70
2022-10-06T04:13:43.690Z,2.30
2022-10-06T04:16:12.195Z,2.13
2022-10-06T04:18:38.802Z,2.30
2022-10-06T04:21:05.552Z,2.13
2022-10-06T04:23:32.098Z,2.67
2022-10-06T04:26:02.983Z,2.25
2022-10-06T04:28:30.176Z,2.38
2022-10-06T04:31:00.888Z,1.98
2022-10-06T04:33:28.183Z,2.10
2022-10-06T04:35:59.577Z,2.00
2022-10-06T04:38:27.108Z,1.85
2022-10-06T04:40:53.735Z,2.17
2022-10-06T04:43:20.174Z,2.33
2022-10-06T04:45:46.671Z,2.10
2022-10-06T04:48:14.131Z,2.10
2022-10-06T04:50:40.567Z,2.10
2022-10-06T04:53:06.990Z,1.83
2022-10-06T04:55:33.826Z,1.77
2022-10-06T04:58:00.210Z,2.03
2022-10-06T05:00:26.810Z,2.05
2022-10-06T05:02:54.246Z,2.53
2022-10-06T05:05:20.618Z,1.50
2022-10-06T05:07:47.111Z,1.98
2022-10-06T05:10:13.596Z,2.05
2022-10-06T05:12:40.069Z,2.00
2022-10-06T05:15:07.299Z,2.08
2022-10-06T05:17:33.688Z,2.03
2022-10-06T05:20:00.093Z,1.52
2022-10-06T05:22:26.474Z,1.83
2022-10-06T05:24:53.848Z,2.25
2022-10-06T05:27:20.722Z,1.85
2022-10-06T05:29:47.638Z,2.08
2022-10-06T05:32:14.049Z,2.25
2022-10-06T05:34:40.471Z,1.80
2022-10-06T05:37:06.864Z,2.00
2022-10-06T05:39:33.260Z,2.80
2022-10-06T05:41:59.623Z,1.90
2022-10-06T05:44:26.040Z,1.85
2022-10-06T05:46:52.496Z,1.88
2022-10-06T05:49:18.929Z,1.95
2022-10-06T05:51:45.372Z,2.15
2022-10-06T05:54:14.173Z,3.10
2022-10-06T05:56:42.154Z,2.45
2022-10-06T05:59:08.575Z,1.90
2022-10-06T06:01:44.061Z,2.08
2022-10-06T06:04:12.264Z,2.08
2022-10-06T06:06:41.074Z,2.85
2022-10-06T06:09:18.859Z,2.50
2022-10-06T06:11:47.574Z,2.00
2022-10-06T06:14:18.763Z,2.00
2022-10-06T06:16:46.319Z,2.25
2022-10-06T06:19:13.547Z,2.65
2022-10-06T06:21:40.370Z,2.10
2022-10-06T06:24:07.239Z,2.58
2022-10-06T06:26:36.698Z,2.55
2022-10-06T06:29:04.005Z,2.30
2022-10-06T06:31:43.680Z,2.08
2022-10-06T06:34:11.967Z,2.00
2022-10-06T06:36:40.972Z,2.38
2022-10-06T06:39:09.570Z,2.00
2022-10-06T06:41:41.248Z,2.22
2022-10-06T06:44:11.072Z,1.90
2022-10-06T06:46:38.515Z,2.75
2022-10-06T06:49:05.808Z,2.22
2022-10-06T06:51:34.589Z,2.47
2022-10-06T06:54:02.558Z,2.58
2022-10-06T06:56:34.947Z,2.55
2022-10-06T06:59:03.875Z,2.13
2022-10-06T07:01:30.668Z,2.45
2022-10-06T07:04:00.928Z,2.75
2022-10-06T07:06:29.257Z,2.20
2022-10-06T07:08:57.651Z,1.92
2022-10-06T07:11:31.319Z,2.72
2022-10-06T07:14:01.453Z,2.20
2022-10-06T07:16:47.924Z,2.15
2022-10-06T07:19:33.422Z,2.38
2022-10-06T07:22:19.948Z,2.10
2022-10-06T07:25:05.413Z,2.15
2022-10-06T07:27:42.476Z,2.30
2022-10-06T07:30:28.594Z,2.92
2022-10-06T07:32:55.295Z,2.50
2022-10-06T07:35:22.854Z,2.25
2022-10-06T07:37:53.032Z,2.35
2022-10-06T07:40:19.554Z,2.47
2022-10-06T07:42:48.724Z,2.10
2022-10-06T07:45:35.974Z,2.38
2022-10-06T07:48:02.607Z,1.80
2022-10-06T07:50:29.237Z,2.30
2022-10-06T07:52:55.744Z,2.53
2022-10-06T07:55:22.209Z,2.15
2022-10-06T07:57:50.890Z,2.40
2022-10-06T08:00:20.545Z,2.47
2022-10-06T08:02:47.241Z,2.53
2022-10-06T08:05:13.926Z,2.78
2022-10-06T08:07:40.916Z,2.80
2022-10-06T08:10:07.592Z,2.42
2022-10-06T08:12:34.261Z,2.03
2022-10-06T08:15:06.089Z,2.67
2022-10-06T08:17:35.268Z,2.35
2022-10-06T08:20:01.784Z,2.60
2022-10-06T08:22:30.020Z,2.60
2022-10-06T08:25:07.665Z,2.60
2022-10-06T08:27:35.339Z,2.42
2022-10-06T08:30:03.425Z,2.83
2022-10-06T08:32:30.093Z,2.28
2022-10-06T08:34:57.014Z,2.58
2022-10-06T08:37:24.516Z,2.63
2022-10-06T08:39:51.539Z,2.45
2022-10-06T08:42:31.991Z,2.10
2022-10-06T08:45:00.843Z,2.50
2022-10-06T08:47:29.423Z,2.53
2022-10-06T08:49:57.116Z,2.53
2022-10-06T08:53:00.779Z,2.40
2022-10-06T08:55:48.462Z,2.60
2022-10-06T08:58:14.786Z,2.33
2022-10-06T09:00:41.190Z,2.55
2022-10-06T09:03:16.738Z,1.85
2022-10-06T09:05:43.188Z,2.40
2022-10-06T09:08:47.534Z,2.63
2022-10-06T09:11:41.823Z,1.88
2022-10-06T09:14:39.174Z,2.10
2022-10-06T09:17:10.834Z,2.30
2022-10-06T09:19:46.552Z,1.93
2022-10-06T09:22:21.604Z,2.20
2022-10-06T09:24:51.353Z,1.88
2022-10-06T09:27:23.930Z,2.08
2022-10-06T09:32:22.210Z,1.98
2022-10-06T09:34:51.297Z,1.80
2022-10-06T09:37:17.961Z,1.83
2022-10-06T09:39:48.149Z,2.28
2022-10-06T09:42:19.629Z,1.90
2022-10-06T09:44:52.577Z,1.55
2022-10-06T09:47:23.509Z,1.88
2022-10-06T09:50:10.022Z,2.28
2022-10-06T09:52:36.537Z,1.75
2022-10-06T09:55:12.520Z,2.92
2022-10-06T09:57:40.888Z,2.15
2022-10-06T10:00:31.820Z,2.50
2022-10-06T10:03:00.158Z,2.05
2022-10-06T10:05:29.547Z,2.10
2022-10-06T10:08:03.561Z,1.92
2022-10-06T10:10:30.349Z,1.90
2022-10-06T10:12:58.846Z,2.10
2022-10-06T10:15:32.001Z,1.92
2022-10-06T10:18:03.028Z,1.65
2022-10-06T10:20:37.707Z,2.20
2022-10-06T10:23:27.208Z,1.60
2022-10-06T10:26:01.214Z,2.53
2022-10-06T10:29:00.943Z,2.08
2022-10-06T10:31:33.413Z,1.95
2022-10-06T10:36:56.418Z,1.60
2022-10-06T10:39:31.765Z,1.95
2022-10-06T10:42:02.590Z,2.15
2022-10-06T10:44:35.997Z,1.90
2022-10-06T10:47:28.606Z,1.70
2022-10-06T10:50:16.822Z,1.45
2022-10-06T10:52:44.449Z,1.58
2022-10-06T10:55:33.317Z,2.03
2022-10-06T10:58:06.107Z,1.75
2022-10-06T11:00:36.098Z,1.65
2022-10-06T11:03:02.701Z,1.88
2022-10-06T11:05:42.474Z,2.05
2022-10-06T11:08:24.987Z,1.60
2022-10-06T11:10:56.603Z,1.40
2022-10-06T11:13:35.175Z,1.43
2022-10-06T11:16:20.131Z,1.92
2022-10-06T11:19:22.230Z,1.55
2022-10-06T11:22:00.811Z,1.70
2022-10-06T11:24:36.095Z,1.90
2022-10-06T11:27:30.584Z,1.58
2022-10-06T11:30:03.779Z,1.70
2022-10-06T11:32:42.348Z,1.83
2022-10-06T11:35:21.485Z,1.42
2022-10-06T11:37:57.381Z,1.23
2022-10-06T11:40:51.729Z,1.35
2022-10-06T11:43:29.964Z,1.45
2022-10-06T11:46:02.108Z,1.45
2022-10-06T11:48:30.079Z,1.83
2022-10-06T11:51:21.513Z,1.40
2022-10-06T11:53:48.014Z,1.30
2022-10-06T11:56:17.443Z,1.80
2022-10-06T11:58:56.029Z,1.88
2022-10-06T12:01:31.559Z,2.17
2022-10-06T12:04:10.228Z,1.73
2022-10-06T12:06:42.919Z,1.50
2022-10-06T12:09:38.906Z,2.22
2022-10-06T12:12:08.233Z,1.92
2022-10-06T12:18:00.632Z,1.88
2022-10-06T12:21:06.417Z,1.60
2022-10-06T12:23:38.490Z,1.80
2022-10-06T12:26:19.858Z,2.15
2022-10-06T12:29:08.169Z,1.83
2022-10-06T12:31:46.192Z,1.40
2022-10-06T12:34:46.342Z,1.98
2022-10-06T12:37:28.061Z,1.60
2022-10-06T12:40:32.503Z,1.60
2022-10-06T12:43:23.052Z,1.67
2022-10-06T12:45:55.574Z,2.17
2022-10-06T12:48:21.935Z,1.67
2022-10-06T12:50:49.554Z,1.70
2022-10-06T12:53:23.916Z,1.88
2022-10-06T12:56:00.517Z,1.33
2022-10-06T12:58:30.969Z,1.67
2022-10-06T13:01:06.875Z,1.60
2022-10-06T13:03:34.485Z,1.52
2022-10-06T13:06:05.838Z,1.42
2022-10-06T13:08:34.258Z,1.38
2022-10-06T13:11:22.426Z,1.48
2022-10-06T13:13:51.516Z,1.88
2022-10-06T13:16:29.554Z,2.33
2022-10-06T13:18:58.486Z,1.55
2022-10-06T13:21:25.156Z,1.80
2022-10-06T13:23:52.256Z,1.50
2022-10-06T13:26:23.898Z,1.83
2022-10-06T13:28:58.287Z,1.50
2022-10-06T13:31:36.545Z,1.90
2022-10-06T13:34:10.573Z,1.70
2022-10-06T13:36:46.854Z,1.33
2022-10-06T13:39:25.363Z,1.48
2022-10-06T13:41:52.591Z,1.83
2022-10-06T13:44:29.491Z,1.45
2022-10-06T13:46:59.705Z,1.65
2022-10-06T13:49:29.775Z,1.40
2022-10-06T13:51:59.686Z,1.55
2022-10-06T13:54:29.690Z,1.40
2022-10-06T13:56:56.177Z,1.48
2022-10-06T13:59:30.206Z,1.60
2022-10-06T14:01:58.793Z,1.50
2022-10-06T14:04:25.342Z,1.58
2022-10-06T14:07:01.698Z,1.45
2022-10-06T14:09:32.289Z,1.90
2022-10-06T14:12:07.316Z,1.60
2022-10-06T14:14:34.094Z,1.40
2022-10-06T14:17:00.512Z,1.38
2022-10-06T14:19:32.804Z,1.25
2022-10-06T14:21:59.390Z,1.40
2022-10-06T14:24:28.250Z,1.77
2022-10-06T14:27:01.013Z,1.77
2022-10-06T14:29:27.414Z,1.55
2022-10-06T14:31:53.833Z,1.50
2022-10-06T14:34:21.868Z,1.55
2022-10-06T14:36:54.952Z,1.55
2022-10-06T14:39:21.514Z,1.70
2022-10-06T14:41:48.048Z,1.40
2022-10-06T14:44:15.757Z,1.60
2022-10-06T14:46:43.828Z,2.00
2022-10-06T14:49:11.747Z,1.20
2022-10-06T14:51:39.241Z,1.73
2022-10-06T14:54:07.461Z,1.95
2022-10-06T14:56:35.063Z,1.30
2022-10-06T14:59:05.391Z,1.40
2022-10-06T15:01:34.189Z,1.77
2022-10-06T15:04:03.938Z,1.70
2022-10-06T15:06:48.876Z,1.38
2022-10-06T15:09:15.346Z,1.55
2022-10-06T15:11:41.982Z,1.50
2022-10-06T15:14:08.674Z,1.40
2022-10-06T15:16:37.358Z,1.77
2022-10-06T15:19:05.487Z,2.28
2022-10-06T15:21:33.069Z,1.58
2022-10-06T15:24:01.602Z,1.80
2022-10-06T15:26:47.277Z,1.20
2022-10-06T15:29:13.940Z,1.45
2022-10-06T15:31:42.844Z,2.10
2022-10-06T15:34:12.099Z,1.80
2022-10-06T15:36:42.677Z,1.33
2022-10-06T15:39:12.827Z,1.50
2022-10-06T15:41:41.099Z,1.45
2022-10-06T15:44:08.472Z,1.48
2022-10-06T15:46:36.193Z,1.67
2022-10-06T15:49:05.345Z,2.20
2022-10-06T15:51:42.646Z,1.60
2022-10-06T15:54:10.808Z,1.63
2022-10-06T15:56:38.097Z,1.48
2022-10-06T15:59:08.068Z,1.40
2022-10-06T16:01:41.960Z,1.52
2022-10-06T16:04:40.170Z,1.58
2022-10-06T16:07:11.818Z,1.42
2022-10-06T16:09:46.185Z,1.77
2022-10-06T16:12:16.219Z,2.03
2022-10-06T16:14:43.231Z,1.23
2022-10-06T16:17:09.943Z,1.60
2022-10-06T16:19:40.175Z,1.70
2022-10-06T16:22:08.128Z,2.08
2022-10-06T16:24:34.732Z,2.00
2022-10-06T16:27:01.172Z,1.90
2022-10-06T16:29:28.192Z,1.70
2022-10-06T16:31:54.847Z,2.10
2022-10-06T16:34:21.678Z,1.85
2022-10-06T16:36:48.061Z,2.67
2022-10-06T16:39:16.636Z,3.28
2022-10-06T16:41:43.534Z,1.90
2022-10-06T16:44:10.289Z,1.85
2022-10-06T16:46:36.888Z,1.77
2022-10-06T16:49:04.385Z,1.67
2022-10-06T16:51:35.857Z,1.55
2022-10-06T16:54:04.562Z,2.55
2022-10-06T16:56:35.906Z,2.00
2022-10-06T16:59:05.462Z,2.13
2022-10-06T17:01:34.644Z,2.45
2022-10-06T17:04:06.663Z,1.70
2022-10-06T17:06:44.280Z,2.15
2022-10-06T17:09:18.563Z,1.70
2022-10-06T17:11:50.674Z,1.85
2022-10-06T17:14:18.068Z,1.85
2022-10-06T17:16:45.646Z,2.00
2022-10-06T17:19:13.347Z,1.70
2022-10-06T17:21:46.114Z,1.70
2022-10-06T17:24:14.290Z,1.95
2022-10-06T17:26:42.736Z,2.35
2022-10-06T17:29:18.703Z,2.08
2022-10-06T17:31:45.617Z,2.50
2022-10-06T17:34:20.881Z,2.60
2022-10-06T17:36:50.697Z,1.85
2022-10-06T17:39:21.739Z,2.15
2022-10-06T17:41:50.133Z,2.35
2022-10-06T17:44:22.296Z,2.08
2022-10-06T17:46:50.904Z,2.10
2022-10-06T17:49:21.945Z,2.72
2022-10-06T17:51:49.500Z,2.45
2022-10-06T17:54:19.717Z,1.83
2022-10-06T17:56:48.136Z,2.25
2022-10-06T17:59:22.853Z,1.77
2022-10-06T18:01:51.087Z,2.45
2022-10-06T18:04:18.494Z,2.00
2022-10-06T18:06:46.089Z,1.95
2022-10-06T18:09:13.070Z,2.10
2022-10-06T18:11:41.903Z,2.35
2022-10-06T18:14:13.687Z,2.38
2022-10-06T18:16:41.487Z,1.90
2022-10-06T18:19:14.412Z,1.90
2022-10-06T18:21:42.100Z,2.47
2022-10-06T18:24:18.593Z,2.17
2022-10-06T18:26:48.141Z,2.38
2022-10-06T18:29:16.546Z,1.98
2022-10-06T18:31:44.023Z,2.58
2022-10-06T18:37:00.159Z,2.35
2022-10-06T18:39:30.990Z,2.40
2022-10-06T18:41:59.094Z,2.70
2022-10-06T18:44:44.395Z,2.85
2022-10-06T18:47:29.526Z,2.97
2022-10-06T18:49:55.928Z,3.38
2022-10-06T18:52:22.616Z,3.15
2022-10-06T18:54:49.181Z,2.50
2022-10-06T18:57:15.653Z,2.72
2022-10-06T18:59:42.417Z,3.00
2022-10-06T19:02:08.913Z,2.95
2022-10-06T19:04:35.858Z,2.90
2022-10-06T19:07:02.492Z,3.05
2022-10-06T19:09:28.907Z,2.85
2022-10-06T19:11:57.653Z,2.63
2022-10-06T19:14:25.508Z,2.92
2022-10-06T19:16:56.228Z,2.50
2022-10-06T19:19:23.427Z,2.95
2022-10-06T19:21:51.754Z,2.60
2022-10-06T19:24:20.474Z,2.38
2022-10-06T19:26:50.699Z,2.83
2022-10-06T19:29:23.028Z,2.53
2022-10-06T19:31:55.997Z,2.72
2022-10-06T19:34:23.046Z,3.50
2022-10-06T19:36:52.933Z,2.60
2022-10-06T19:39:25.087Z,2.40
2022-10-06T19:42:10.703Z,2.53
2022-10-06T19:44:42.890Z,3.10
2022-10-06T19:49:38.191Z,2.40
2022-10-06T19:52:08.128Z,2.78
2022-10-06T19:54:35.352Z,2.60
2022-10-06T19:57:05.534Z,3.00
2022-10-06T19:59:32.735Z,2.83
2022-10-06T20:01:59.156Z,2.70
2022-10-06T20:04:25.908Z,2.85
2022-10-06T20:06:52.555Z,2.50
2022-10-06T20:09:21.413Z,2.83
2022-10-06T20:11:49.089Z,2.83
2022-10-06T20:14:20.741Z,2.38
2022-10-06T20:16:49.159Z,2.63
2022-10-06T20:19:15.729Z,2.55
2022-10-06T20:21:42.952Z,2.80
2022-10-06T20:24:15.039Z,2.72
2022-10-06T20:26:42.405Z,2.60
2022-10-06T20:29:11.578Z,3.05
2022-10-06T20:31:40.251Z,2.92
2022-10-06T20:34:09.022Z,3.10
2022-10-06T20:36:36.407Z,3.20
2022-10-06T20:39:22.787Z,2.80
2022-10-06T20:41:49.448Z,2.75
2022-10-06T20:44:15.901Z,3.10
2022-10-06T20:46:42.627Z,2.65
2022-10-06T20:49:13.706Z,2.75
2022-10-06T20:51:41.806Z,3.10
2022-10-06T20:54:08.267Z,3.00
2022-10-06T20:56:35.182Z,2.90
2022-10-06T20:59:07.512Z,3.30
2022-10-06T21:01:39.779Z,2.80
2022-10-06T21:04:07.069Z,3.25
2022-10-06T21:06:33.655Z,2.65
2022-10-06T21:09:01.417Z,2.60
2022-10-06T21:11:28.244Z,2.88
2022-10-06T21:13:55.061Z,2.63
2022-10-06T21:16:33.382Z,2.78
2022-10-06T21:19:01.766Z,2.72
2022-10-06T21:21:28.344Z,2.80
2022-10-06T21:23:54.864Z,2.47
2022-10-06T21:26:23.654Z,2.95
2022-10-06T21:28:53.218Z,2.58
2022-10-06T21:31:24.855Z,2.92
2022-10-06T21:33:52.442Z,2.53
2022-10-06T21:36:26.474Z,2.85
2022-10-06T21:38:57.521Z,2.90
2022-10-06T21:41:29.000Z,3.38
2022-10-06T21:44:13.456Z,2.75
2022-10-06T21:46:51.079Z,2.72
2022-10-06T21:49:19.800Z,2.72
2022-10-06T21:51:48.396Z,3.28
2022-10-06T21:54:15.207Z,2.85
2022-10-06T21:56:42.075Z,3.00
2022-10-06T21:59:08.709Z,2.78
2022-10-06T22:01:37.293Z,2.60
2022-10-06T22:04:04.317Z,2.78
2022-10-06T22:06:32.381Z,2.88
2022-10-06T22:08:59.953Z,2.72
2022-10-06T22:11:31.394Z,3.05
2022-10-06T22:14:00.418Z,2.72
2022-10-06T22:16:29.658Z,3.10
2022-10-06T22:18:56.405Z,2.60
2022-10-06T22:21:28.440Z,3.15
2022-10-06T22:23:55.992Z,2.95
2022-10-06T22:26:23.040Z,2.83
2022-10-06T22:28:50.816Z,2.85
2022-10-06T22:31:23.211Z,3.00
2022-10-06T22:33:55.190Z,3.10
2022-10-06T22:36:21.844Z,3.05
2022-10-06T22:38:48.472Z,3.35
2022-10-06T22:41:15.220Z,3.15
2022-10-06T22:43:42.283Z,3.28
2022-10-06T22:46:10.349Z,3.20
2022-10-06T22:48:37.073Z,3.13
2022-10-06T22:51:04.696Z,3.30
2022-10-06T22:53:31.589Z,3.28
2022-10-06T22:55:59.898Z,3.08
2022-10-06T22:58:27.445Z,2.88
2022-10-06T23:00:54.365Z,3.42
2022-10-06T23:03:21.712Z,3.00
2022-10-06T23:05:59.848Z,3.28
2022-10-06T23:08:30.172Z,2.80
2022-10-06T23:11:15.368Z,2.90
2022-10-06T23:13:43.320Z,2.97
2022-10-06T23:16:11.925Z,3.05
2022-10-06T23:18:39.776Z,2.90
2022-10-06T23:21:21.965Z,3.17
2022-10-06T23:23:52.530Z,2.58
2022-10-06T23:26:19.378Z,3.05
2022-10-06T23:28:47.012Z,3.30
2022-10-06T23:31:13.603Z,3.30
2022-10-06T23:33:40.285Z,2.80
2022-10-06T23:36:09.764Z,2.88
2022-10-06T23:38:37.436Z,3.20
2022-10-06T23:41:05.167Z,3.10
2022-10-06T23:43:32.280Z,2.58
2022-10-06T23:45:58.929Z,2.83
2022-10-06T23:48:25.623Z,2.80
2022-10-06T23:51:18.360Z,2.92
2022-10-06T23:53:44.971Z,2.65
2022-10-06T23:56:11.763Z,3.10
2022-10-06T23:58:38.935Z,2.90
